IDBO2: Little River, Idabel, OK

                                SHEF ID:       IDBO2     Little River blw Lukfata Creek
STATION TYPE: Stream Gauge
Regulating: Stage = 27.50, Flow = 12738

PRECIP STAGE RIV-FLOW BAT-LOAD
in ft cfs volt
Ccp-Rev Ccp-Rev Ccp-Rev Ccp-Rev
(America/Chicago)
04/24 00:00 0.00 6.45 383 13.62
04/24 01:00 0.00 6.45 383 13.59
04/24 02:00 0.00 6.44 380 13.57
04/24 03:00 0.00 6.43 377 13.55
04/24 04:00 0.00 6.43 377 13.52
04/24 05:00 0.00 6.42 374 13.51
04/24 06:00 0.00 6.42 374 13.49
04/24 07:00 0.00 6.42 374 13.47
04/24 08:00 0.00 6.41 371 13.45
04/24 09:00 0.00 6.40 367 13.49
04/24 10:00 0.00 6.40 367 13.65
04/24 11:00 0.00 6.40 367 13.88
04/24 12:00 0.00 6.39 364 ----
04/24 13:00 0.00 6.38 361 13.82
04/24 14:00 0.00 6.39 364 13.79
04/24 15:00 0.00 6.38 361 13.77
04/24 16:00 0.00 6.32 342 13.76
04/24 17:00 0.00 6.36 355 13.74
04/24 18:00 0.00 6.32 342 13.73
04/24 19:00 0.00 6.34 348 13.72
04/24 20:00 0.01 6.34 348 13.68
04/24 21:00 0.29 6.29 333 13.65
04/24 22:00 0.05 6.37 358 13.62
04/24 23:00 0.00 6.37 358 13.59
Data processed at Sat 25Apr2026 04:32 GMT

NOTICE: If you are parsing this page

Please convert to using our Data API. Starting early 2026 we will be migrating to: https://water.usace.army.mil with modern pages rendered in JavaScript. When this migration completes you will no longer be able to scrape this page! CWMSDataAPI (CDA)

Timeseries IDs (TSIDs)

TSIDs used from left to right in the data table
IDAB.Precip-Inc.Total.1Hour.1Hour.Ccp-Rev
IDAB.Stage.Inst.1Hour.0.Ccp-Rev
IDAB.Flow.Inst.1Hour.0.Ccp-Rev
IDAB.Volt-Battery Load.Inst.1Hour.0.Ccp-Rev

                            

All information presented herein is the property of the government of the United States of America and may be revised or deleted at any time without prior notice. Dissemination of this information without the expressed written consent of the Public Affairs Office, Tulsa District U.S. Army Corps of Engineers is strictly prohibited. These data are gathered electronically and, as presented, have NOT undergone any form of quality control. These data are NOT guaranteed to be valid or correct.